Terminal Aerodrome Forecast
Issued by NWS Greer, SC

Home | Current Version | Previous Version | Text Only | Print | Product List | Glossary On
Versions: 1 2 3 4 5 6 7 8 9 10 11 12 13 14 15 16 17 18 19 20 21 22 23 24 25 26 27
000
FTUS42 KGSP 270540 CCA
TAFAVL
TAF COR
KAVL 270540Z 2706/2806 16006KT P6SM SCT050 BKN250
     FM271500 17007KT P6SM BKN015 PROB30 2716/2720 4SM -TSRA
      OVC007CB
     FM272000 20006KT 5SM -SHRA VCTS BKN020CB
     FM272200 31007KT P6SM BKN050
     FM280200 34007KT P6SM SCT060=

USA.gov is the U.S. government's official web portal to all federal, state and local government web resources and services.